Terminal Aerodrome Forecast
Issued by NWS Green Bay, WI

Home | Current Version | Previous Version | Text Only | Print | Product List | Glossary Off
Versions: 1 2 3 4 5 6 7 8 9 10 11 12 13 14 15 16 17 18 19 20 21 22

000
FTUS43 KGRB 161739
TAFGRB
TAF
KGRB 161739Z 1618/1718 07010KT P6SM SCT030 BKN100
     FM170300 10009KT P6SM -SHRA SCT025 OVC050
      TEMPO 1704/1708 2SM TSRA BR BKN015CB
     FM170900 16007KT 4SM BR VCSH BKN008 OVC015
     FM171600 20011G18KT P6SM -SHRA OVC020
      TEMPO 1716/1718 4SM TSRA BKN015CB=

USA.gov is the U.S. government's official web portal to all federal, state and local government web resources and services.